sensor_id;sensor_type;location;lat;lon;timestamp;P1;P2;P0
44980;PMS5003;67464;52.438;-1.904;2023-04-02T00:00:18;13;12;
44980;PMS5003;67464;52.438;-1.904;2023-04-02T00:02:45;14;13;
44980;PMS5003;67464;52.438;-1.904;2023-04-02T00:07:35;19;16;
44980;PMS5003;67464;52.438;-1.904;2023-04-02T00:10:01;13;9;
44980;PMS5003;67464;52.438;-1.904;2023-04-02T00:12:27;13;12;
44980;PMS5003;67464;52.438;-1.904;2023-04-02T00:14:52;12;12;
44980;PMS5003;67464;52.438;-1.904;2023-04-02T00:17:18;9;9;
44980;PMS5003;67464;52.438;-1.904;2023-04-02T00:19:44;14;13;
44980;PMS5003;67464;52.438;-1.904;2023-04-02T00:22:11;13;11;
44980;PMS5003;67464;52.438;-1.904;2023-04-02T00:24:35;9;9;
44980;PMS5003;67464;52.438;-1.904;2023-04-02T00:27:00;12;9;
44980;PMS5003;67464;52.438;-1.904;2023-04-02T00:29:26;11;11;
44980;PMS5003;67464;52.438;-1.904;2023-04-02T00:31:52;9;7;
44980;PMS5003;67464;52.438;-1.904;2023-04-02T00:34:20;13;11;
44980;PMS5003;67464;52.438;-1.904;2023-04-02T00:36:43;9;9;
44980;PMS5003;67464;52.438;-1.904;2023-04-02T00:39:09;9;9;
44980;PMS5003;67464;52.438;-1.904;2023-04-02T00:41:34;12;8;
44980;PMS5003;67464;52.438;-1.904;2023-04-02T00:44:00;8;8;
44980;PMS5003;67464;52.438;-1.904;2023-04-02T00:46:27;8;8;
44980;PMS5003;67464;52.438;-1.904;2023-04-02T00:48:53;12;8;
44980;PMS5003;67464;52.438;-1.904;2023-04-02T00:51:21;9;9;
44980;PMS5003;67464;52.438;-1.904;2023-04-02T00:53:44;9;9;
44980;PMS5003;67464;52.438;-1.904;2023-04-02T00:56:12;9;9;
44980;PMS5003;67464;52.438;-1.904;2023-04-02T00:58:35;9;9;
44980;PMS5003;67464;52.438;-1.904;2023-04-02T01:01:00;8;8;
44980;PMS5003;67464;52.438;-1.904;2023-04-02T01:03:27;7;5;
44980;PMS5003;67464;52.438;-1.904;2023-04-02T01:05:54;8;7;
44980;PMS5003;67464;52.438;-1.904;2023-04-02T01:08:19;5;5;
44980;PMS5003;67464;52.438;-1.904;2023-04-02T01:10:46;5;5;
44980;PMS5003;67464;52.438;-1.904;2023-04-02T01:13:12;6;6;
44980;PMS5003;67464;52.438;-1.904;2023-04-02T01:15:36;9;7;
44980;PMS5003;67464;52.438;-1.904;2023-04-02T01:18:05;6;6;
44980;PMS5003;67464;52.438;-1.904;2023-04-02T01:22:52;8;8;
44980;PMS5003;67464;52.438;-1.904;2023-04-02T01:25:18;6;6;
44980;PMS5003;67464;52.438;-1.904;2023-04-02T01:27:43;8;7;
44980;PMS5003;67464;52.438;-1.904;2023-04-02T01:30:08;6;6;
44980;PMS5003;67464;52.438;-1.904;2023-04-02T01:32:33;9;8;
44980;PMS5003;67464;52.438;-1.904;2023-04-02T01:34:59;6;5;
44980;PMS5003;67464;52.438;-1.904;2023-04-02T01:37:30;6;6;
44980;PMS5003;67464;52.438;-1.904;2023-04-02T01:39:55;9;7;
44980;PMS5003;67464;52.438;-1.904;2023-04-02T01:42:18;8;7;
44980;PMS5003;67464;52.438;-1.904;2023-04-02T01:44:43;6;6;
44980;PMS5003;67464;52.438;-1.904;2023-04-02T01:47:09;5;5;
44980;PMS5003;67464;52.438;-1.904;2023-04-02T01:49:33;7;6;
44980;PMS5003;67464;52.438;-1.904;2023-04-02T01:51:59;5;5;
44980;PMS5003;67464;52.438;-1.904;2023-04-02T01:54:25;5;5;
44980;PMS5003;67464;52.438;-1.904;2023-04-02T01:56:51;5;5;
44980;PMS5003;67464;52.438;-1.904;2023-04-02T01:59:17;10;8;
44980;PMS5003;67464;52.438;-1.904;2023-04-02T02:01:43;6;6;
44980;PMS5003;67464;52.438;-1.904;2023-04-02T02:04:09;6;6;
44980;PMS5003;67464;52.438;-1.904;2023-04-02T02:06:33;6;4;
44980;PMS5003;67464;52.438;-1.904;2023-04-02T02:08:59;9;6;
44980;PMS5003;67464;52.438;-1.904;2023-04-02T02:11:26;6;6;
44980;PMS5003;67464;52.438;-1.904;2023-04-02T02:13:52;6;6;
44980;PMS5003;67464;52.438;-1.904;2023-04-02T02:16:16;9;8;
44980;PMS5003;67464;52.438;-1.904;2023-04-02T02:18:42;6;6;
44980;PMS5003;67464;52.438;-1.904;2023-04-02T02:21:08;6;6;
44980;PMS5003;67464;52.438;-1.904;2023-04-02T02:23:33;7;6;
44980;PMS5003;67464;52.438;-1.904;2023-04-02T02:25:59;6;6;
44980;PMS5003;67464;52.438;-1.904;2023-04-02T02:28:25;13;12;
44980;PMS5003;67464;52.438;-1.904;2023-04-02T02:30:51;10;8;
44980;PMS5003;67464;52.438;-1.904;2023-04-02T02:33:16;9;6;
44980;PMS5003;67464;52.438;-1.904;2023-04-02T02:35:42;9;8;
44980;PMS5003;67464;52.438;-1.904;2023-04-02T02:40:34;6;6;
44980;PMS5003;67464;52.438;-1.904;2023-04-02T02:43:00;6;6;
44980;PMS5003;67464;52.438;-1.904;2023-04-02T02:45:25;4;4;
44980;PMS5003;67464;52.438;-1.904;2023-04-02T02:47:50;7;7;
44980;PMS5003;67464;52.438;-1.904;2023-04-02T02:50:17;7;7;
44980;PMS5003;67464;52.438;-1.904;2023-04-02T02:52:44;8;8;
44980;PMS5003;67464;52.438;-1.904;2023-04-02T02:55:08;10;8;
44980;PMS5003;67464;52.438;-1.904;2023-04-02T02:57:34;8;8;
44980;PMS5003;67464;52.438;-1.904;2023-04-02T02:59:58;6;6;
44980;PMS5003;67464;52.438;-1.904;2023-04-02T03:02:24;6;6;
44980;PMS5003;67464;52.438;-1.904;2023-04-02T03:04:50;8;8;
44980;PMS5003;67464;52.438;-1.904;2023-04-02T03:07:16;8;7;
44980;PMS5003;67464;52.438;-1.904;2023-04-02T03:09:44;8;8;
44980;PMS5003;67464;52.438;-1.904;2023-04-02T03:12:10;9;9;
44980;PMS5003;67464;52.438;-1.904;2023-04-02T03:14:33;8;8;
44980;PMS5003;67464;52.438;-1.904;2023-04-02T03:16:59;6;6;
44980;PMS5003;67464;52.438;-1.904;2023-04-02T03:19:26;6;6;
44980;PMS5003;67464;52.438;-1.904;2023-04-02T03:21:50;13;10;
44980;PMS5003;67464;52.438;-1.904;2023-04-02T03:24:16;9;6;
44980;PMS5003;67464;52.438;-1.904;2023-04-02T03:26:42;9;8;
44980;PMS5003;67464;52.438;-1.904;2023-04-02T03:29:09;8;8;
44980;PMS5003;67464;52.438;-1.904;2023-04-02T03:31:34;11;8;
44980;PMS5003;67464;52.438;-1.904;2023-04-02T03:34:00;7;7;
44980;PMS5003;67464;52.438;-1.904;2023-04-02T03:36:25;9;9;
44980;PMS5003;67464;52.438;-1.904;2023-04-02T03:38:50;8;7;
44980;PMS5003;67464;52.438;-1.904;2023-04-02T03:41:16;7;6;
44980;PMS5003;67464;52.438;-1.904;2023-04-02T03:43:42;7;7;
44980;PMS5003;67464;52.438;-1.904;2023-04-02T03:46:10;8;7;
44980;PMS5003;67464;52.438;-1.904;2023-04-02T03:48:36;8;7;
44980;PMS5003;67464;52.438;-1.904;2023-04-02T03:50:59;6;6;
44980;PMS5003;67464;52.438;-1.904;2023-04-02T03:53:24;11;11;
44980;PMS5003;67464;52.438;-1.904;2023-04-02T03:55:50;7;7;
44980;PMS5003;67464;52.438;-1.904;2023-04-02T03:58:16;7;7;
44980;PMS5003;67464;52.438;-1.904;2023-04-02T04:00:42;8;6;
44980;PMS5003;67464;52.438;-1.904;2023-04-02T04:03:08;6;6;
44980;PMS5003;67464;52.438;-1.904;2023-04-02T04:05:33;7;7;
44980;PMS5003;67464;52.438;-1.904;2023-04-02T04:07:59;8;8;
44980;PMS5003;67464;52.438;-1.904;2023-04-02T04:10:24;6;6;
44980;PMS5003;67464;52.438;-1.904;2023-04-02T04:12:51;12;9;
44980;PMS5003;67464;52.438;-1.904;2023-04-02T04:15:18;7;7;
44980;PMS5003;67464;52.438;-1.904;2023-04-02T04:17:44;9;7;
44980;PMS5003;67464;52.438;-1.904;2023-04-02T04:20:12;12;8;
44980;PMS5003;67464;52.438;-1.904;2023-04-02T04:22:33;9;8;
44980;PMS5003;67464;52.438;-1.904;2023-04-02T04:24:59;7;7;
44980;PMS5003;67464;52.438;-1.904;2023-04-02T04:27:25;10;8;
44980;PMS5003;67464;52.438;-1.904;2023-04-02T04:29:51;9;8;
44980;PMS5003;67464;52.438;-1.904;2023-04-02T04:32:17;5;5;
44980;PMS5003;67464;52.438;-1.904;2023-04-02T04:34:42;10;7;
44980;PMS5003;67464;52.438;-1.904;2023-04-02T04:39:35;13;10;
44980;PMS5003;67464;52.438;-1.904;2023-04-02T04:41:58;13;11;
44980;PMS5003;67464;52.438;-1.904;2023-04-02T04:44:25;8;8;
44980;PMS5003;67464;52.438;-1.904;2023-04-02T04:46:51;8;8;
44980;PMS5003;67464;52.438;-1.904;2023-04-02T04:49:16;12;9;
44980;PMS5003;67464;52.438;-1.904;2023-04-02T04:51:41;9;9;
44980;PMS5003;67464;52.438;-1.904;2023-04-02T04:54:08;9;8;
44980;PMS5003;67464;52.438;-1.904;2023-04-02T04:56:32;12;8;
44980;PMS5003;67464;52.438;-1.904;2023-04-02T04:58:59;7;7;
44980;PMS5003;67464;52.438;-1.904;2023-04-02T05:01:24;13;13;
44980;PMS5003;67464;52.438;-1.904;2023-04-02T05:03:50;12;12;
44980;PMS5003;67464;52.438;-1.904;2023-04-02T05:06:23;11;9;
44980;PMS5003;67464;52.438;-1.904;2023-04-02T05:08:42;9;8;
44980;PMS5003;67464;52.438;-1.904;2023-04-02T05:11:07;7;7;
44980;PMS5003;67464;52.438;-1.904;2023-04-02T05:13:32;13;12;
44980;PMS5003;67464;52.438;-1.904;2023-04-02T05:16:00;8;8;
44980;PMS5003;67464;52.438;-1.904;2023-04-02T05:18:24;9;9;
44980;PMS5003;67464;52.438;-1.904;2023-04-02T05:20:49;7;7;
44980;PMS5003;67464;52.438;-1.904;2023-04-02T05:23:15;8;7;
44980;PMS5003;67464;52.438;-1.904;2023-04-02T05:28:06;14;11;
44980;PMS5003;67464;52.438;-1.904;2023-04-02T05:30:38;13;11;
44980;PMS5003;67464;52.438;-1.904;2023-04-02T05:32:58;8;6;
44980;PMS5003;67464;52.438;-1.904;2023-04-02T05:35:24;12;11;
44980;PMS5003;67464;52.438;-1.904;2023-04-02T05:37:48;11;8;
44980;PMS5003;67464;52.438;-1.904;2023-04-02T05:40:18;9;8;
44980;PMS5003;67464;52.438;-1.904;2023-04-02T05:42:40;14;14;
44980;PMS5003;67464;52.438;-1.904;2023-04-02T05:45:07;9;6;
44980;PMS5003;67464;52.438;-1.904;2023-04-02T05:47:31;6;6;
44980;PMS5003;67464;52.438;-1.904;2023-04-02T05:50:04;11;9;
44980;PMS5003;67464;52.438;-1.904;2023-04-02T05:52:24;7;7;
44980;PMS5003;67464;52.438;-1.904;2023-04-02T05:54:50;6;6;
44980;PMS5003;67464;52.438;-1.904;2023-04-02T05:57:16;7;7;
44980;PMS5003;67464;52.438;-1.904;2023-04-02T05:59:40;7;6;
44980;PMS5003;67464;52.438;-1.904;2023-04-02T06:02:09;14;12;
44980;PMS5003;67464;52.438;-1.904;2023-04-02T06:04:33;7;5;
44980;PMS5003;67464;52.438;-1.904;2023-04-02T06:06:58;7;5;
44980;PMS5003;67464;52.438;-1.904;2023-04-02T06:09:27;9;9;
44980;PMS5003;67464;52.438;-1.904;2023-04-02T06:11:50;6;6;
44980;PMS5003;67464;52.438;-1.904;2023-04-02T06:14:15;8;8;
44980;PMS5003;67464;52.438;-1.904;2023-04-02T06:16:41;8;7;
44980;PMS5003;67464;52.438;-1.904;2023-04-02T06:19:08;9;8;
44980;PMS5003;67464;52.438;-1.904;2023-04-02T06:21:32;6;6;
44980;PMS5003;67464;52.438;-1.904;2023-04-02T06:23:59;7;7;
44980;PMS5003;67464;52.438;-1.904;2023-04-02T06:26:25;11;11;
44980;PMS5003;67464;52.438;-1.904;2023-04-02T06:28:51;6;6;
44980;PMS5003;67464;52.438;-1.904;2023-04-02T06:31:18;6;6;
44980;PMS5003;67464;52.438;-1.904;2023-04-02T06:33:41;10;8;
44980;PMS5003;67464;52.438;-1.904;2023-04-02T06:36:07;7;7;
44980;PMS5003;67464;52.438;-1.904;2023-04-02T06:38:32;6;6;
44980;PMS5003;67464;52.438;-1.904;2023-04-02T06:40:58;10;10;
44980;PMS5003;67464;52.438;-1.904;2023-04-02T06:43:25;8;7;
44980;PMS5003;67464;52.438;-1.904;2023-04-02T06:45:50;5;5;
44980;PMS5003;67464;52.438;-1.904;2023-04-02T06:48:16;6;6;
44980;PMS5003;67464;52.438;-1.904;2023-04-02T06:50:43;9;9;
44980;PMS5003;67464;52.438;-1.904;2023-04-02T06:53:08;6;6;
44980;PMS5003;67464;52.438;-1.904;2023-04-02T06:55:36;8;8;
44980;PMS5003;67464;52.438;-1.904;2023-04-02T06:57:58;7;7;
44980;PMS5003;67464;52.438;-1.904;2023-04-02T07:00:25;6;6;
44980;PMS5003;67464;52.438;-1.904;2023-04-02T07:02:49;14;14;
44980;PMS5003;67464;52.438;-1.904;2023-04-02T07:05:15;11;11;
44980;PMS5003;67464;52.438;-1.904;2023-04-02T07:07:41;11;8;
44980;PMS5003;67464;52.438;-1.904;2023-04-02T07:10:07;15;13;
44980;PMS5003;67464;52.438;-1.904;2023-04-02T07:12:32;16;13;
44980;PMS5003;67464;52.438;-1.904;2023-04-02T07:14:57;12;12;
44980;PMS5003;67464;52.438;-1.904;2023-04-02T07:17:23;13;13;
44980;PMS5003;67464;52.438;-1.904;2023-04-02T07:19:48;19;16;
44980;PMS5003;67464;52.438;-1.904;2023-04-02T07:22:14;22;15;
44980;PMS5003;67464;52.438;-1.904;2023-04-02T07:24:40;15;13;
44980;PMS5003;67464;52.438;-1.904;2023-04-02T07:27:05;16;14;
44980;PMS5003;67464;52.438;-1.904;2023-04-02T07:29:31;23;17;
44980;PMS5003;67464;52.438;-1.904;2023-04-02T07:31:56;17;13;
44980;PMS5003;67464;52.438;-1.904;2023-04-02T07:34:22;15;15;
44980;PMS5003;67464;52.438;-1.904;2023-04-02T07:36:47;14;10;
44980;PMS5003;67464;52.438;-1.904;2023-04-02T07:39:13;15;15;
44980;PMS5003;67464;52.438;-1.904;2023-04-02T07:44:04;12;11;
44980;PMS5003;67464;52.438;-1.904;2023-04-02T07:46:30;12;12;
44980;PMS5003;67464;52.438;-1.904;2023-04-02T07:48:55;7;7;
44980;PMS5003;67464;52.438;-1.904;2023-04-02T07:51:22;10;7;
44980;PMS5003;67464;52.438;-1.904;2023-04-02T07:53:47;12;11;
44980;PMS5003;67464;52.438;-1.904;2023-04-02T07:56:13;13;11;
44980;PMS5003;67464;52.438;-1.904;2023-04-02T07:58:38;11;8;
44980;PMS5003;67464;52.438;-1.904;2023-04-02T08:01:03;13;13;
44980;PMS5003;67464;52.438;-1.904;2023-04-02T08:03:29;12;12;
44980;PMS5003;67464;52.438;-1.904;2023-04-02T08:05:55;13;13;
44980;PMS5003;67464;52.438;-1.904;2023-04-02T08:08:20;13;11;
44980;PMS5003;67464;52.438;-1.904;2023-04-02T08:10:46;16;12;
44980;PMS5003;67464;52.438;-1.904;2023-04-02T08:13:12;16;15;
44980;PMS5003;67464;52.438;-1.904;2023-04-02T08:15:37;12;11;
44980;PMS5003;67464;52.438;-1.904;2023-04-02T08:18:03;17;14;
44980;PMS5003;67464;52.438;-1.904;2023-04-02T08:20:29;18;15;
44980;PMS5003;67464;52.438;-1.904;2023-04-02T08:22:54;17;15;
44980;PMS5003;67464;52.438;-1.904;2023-04-02T08:25:19;15;14;
44980;PMS5003;67464;52.438;-1.904;2023-04-02T08:27:45;14;13;
44980;PMS5003;67464;52.438;-1.904;2023-04-02T08:30:11;13;12;
44980;PMS5003;67464;52.438;-1.904;2023-04-02T08:32:36;16;15;
44980;PMS5003;67464;52.438;-1.904;2023-04-02T08:35:01;13;13;
44980;PMS5003;67464;52.438;-1.904;2023-04-02T08:37:27;13;13;
44980;PMS5003;67464;52.438;-1.904;2023-04-02T08:39:53;14;12;
44980;PMS5003;67464;52.438;-1.904;2023-04-02T08:42:20;17;13;
44980;PMS5003;67464;52.438;-1.904;2023-04-02T08:44:44;13;12;
44980;PMS5003;67464;52.438;-1.904;2023-04-02T08:47:08;9;9;
44980;PMS5003;67464;52.438;-1.904;2023-04-02T08:49:35;13;12;
44980;PMS5003;67464;52.438;-1.904;2023-04-02T08:52:00;13;10;
44980;PMS5003;67464;52.438;-1.904;2023-04-02T08:54:27;16;9;
44980;PMS5003;67464;52.438;-1.904;2023-04-02T08:56:51;13;9;
44980;PMS5003;67464;52.438;-1.904;2023-04-02T08:59:18;10;10;
44980;PMS5003;67464;52.438;-1.904;2023-04-02T09:01:43;10;7;
44980;PMS5003;67464;52.438;-1.904;2023-04-02T09:04:12;8;8;
44980;PMS5003;67464;52.438;-1.904;2023-04-02T09:06:33;9;9;
44980;PMS5003;67464;52.438;-1.904;2023-04-02T09:08:58;10;10;
44980;PMS5003;67464;52.438;-1.904;2023-04-02T09:11:24;14;12;
44980;PMS5003;67464;52.438;-1.904;2023-04-02T09:13:51;14;14;
44980;PMS5003;67464;52.438;-1.904;2023-04-02T09:16:16;18;16;
44980;PMS5003;67464;52.438;-1.904;2023-04-02T09:18:41;14;12;
44980;PMS5003;67464;52.438;-1.904;2023-04-02T09:23:32;17;16;
44980;PMS5003;67464;52.438;-1.904;2023-04-02T09:25:57;12;12;
44980;PMS5003;67464;52.438;-1.904;2023-04-02T09:28:24;15;12;
44980;PMS5003;67464;52.438;-1.904;2023-04-02T09:30:54;15;10;
44980;PMS5003;67464;52.438;-1.904;2023-04-02T09:33:13;12;11;
44980;PMS5003;67464;52.438;-1.904;2023-04-02T09:38:10;16;11;
44980;PMS5003;67464;52.438;-1.904;2023-04-02T09:40:31;12;8;
44980;PMS5003;67464;52.438;-1.904;2023-04-02T09:43:02;12;11;
44980;PMS5003;67464;52.438;-1.904;2023-04-02T09:45:22;14;12;
44980;PMS5003;67464;52.438;-1.904;2023-04-02T09:47:48;11;11;
44980;PMS5003;67464;52.438;-1.904;2023-04-02T09:50:14;14;11;
44980;PMS5003;67464;52.438;-1.904;2023-04-02T09:52:38;11;11;
44980;PMS5003;67464;52.438;-1.904;2023-04-02T09:55:09;10;10;
44980;PMS5003;67464;52.438;-1.904;2023-04-02T09:57:29;12;12;
44980;PMS5003;67464;52.438;-1.904;2023-04-02T10:02:22;17;14;
44980;PMS5003;67464;52.438;-1.904;2023-04-02T10:04:46;16;14;
44980;PMS5003;67464;52.438;-1.904;2023-04-02T10:09:36;18;16;
44980;PMS5003;67464;52.438;-1.904;2023-04-02T10:12:03;11;11;
44980;PMS5003;67464;52.438;-1.904;2023-04-02T10:14:28;10;10;
44980;PMS5003;67464;52.438;-1.904;2023-04-02T10:16:54;10;10;
44980;PMS5003;67464;52.438;-1.904;2023-04-02T10:19:21;10;9;
44980;PMS5003;67464;52.438;-1.904;2023-04-02T10:21:44;10;9;
44980;PMS5003;67464;52.438;-1.904;2023-04-02T10:24:10;15;9;
44980;PMS5003;67464;52.438;-1.904;2023-04-02T10:26:40;12;11;
44980;PMS5003;67464;52.438;-1.904;2023-04-02T10:29:04;12;11;
44980;PMS5003;67464;52.438;-1.904;2023-04-02T10:31:27;11;11;
44980;PMS5003;67464;52.438;-1.904;2023-04-02T10:33:54;10;10;
44980;PMS5003;67464;52.438;-1.904;2023-04-02T10:36:20;14;14;
44980;PMS5003;67464;52.438;-1.904;2023-04-02T10:38:43;15;12;
44980;PMS5003;67464;52.438;-1.904;2023-04-02T10:41:17;18;14;
44980;PMS5003;67464;52.438;-1.904;2023-04-02T10:43:40;18;17;
44980;PMS5003;67464;52.438;-1.904;2023-04-02T10:46:00;13;13;
44980;PMS5003;67464;52.438;-1.904;2023-04-02T10:48:26;11;10;
44980;PMS5003;67464;52.438;-1.904;2023-04-02T10:50:52;14;12;
44980;PMS5003;67464;52.438;-1.904;2023-04-02T10:53:16;14;13;
44980;PMS5003;67464;52.438;-1.904;2023-04-02T10:55:42;13;13;
44980;PMS5003;67464;52.438;-1.904;2023-04-02T10:58:12;16;15;
44980;PMS5003;67464;52.438;-1.904;2023-04-02T11:00:32;19;15;
44980;PMS5003;67464;52.438;-1.904;2023-04-02T11:02:59;14;13;
44980;PMS5003;67464;52.438;-1.904;2023-04-02T11:05:26;12;12;
44980;PMS5003;67464;52.438;-1.904;2023-04-02T11:07:50;16;14;
44980;PMS5003;67464;52.438;-1.904;2023-04-02T11:10:14;15;12;
44980;PMS5003;67464;52.438;-1.904;2023-04-02T11:12:40;13;12;
44980;PMS5003;67464;52.438;-1.904;2023-04-02T11:15:08;12;12;
44980;PMS5003;67464;52.438;-1.904;2023-04-02T11:17:30;11;10;
44980;PMS5003;67464;52.438;-1.904;2023-04-02T11:19:59;12;11;
44980;PMS5003;67464;52.438;-1.904;2023-04-02T11:22:22;14;11;
44980;PMS5003;67464;52.438;-1.904;2023-04-02T11:24:47;14;13;
44980;PMS5003;67464;52.438;-1.904;2023-04-02T11:27:15;10;10;
44980;PMS5003;67464;52.438;-1.904;2023-04-02T11:29:38;11;11;
44980;PMS5003;67464;52.438;-1.904;2023-04-02T11:37:00;23;23;
44980;PMS5003;67464;52.438;-1.904;2023-04-02T11:46:40;12;12;
44980;PMS5003;67464;52.438;-1.904;2023-04-02T11:53:52;13;11;
44980;PMS5003;67464;52.438;-1.904;2023-04-02T11:56:18;10;8;
44980;PMS5003;67464;52.438;-1.904;2023-04-02T11:58:47;10;10;
44980;PMS5003;67464;52.438;-1.904;2023-04-02T12:01:19;12;11;
44980;PMS5003;67464;52.438;-1.904;2023-04-02T12:03:39;14;11;
44980;PMS5003;67464;52.438;-1.904;2023-04-02T12:06:00;10;10;
44980;PMS5003;67464;52.438;-1.904;2023-04-02T12:08:28;12;11;
44980;PMS5003;67464;52.438;-1.904;2023-04-02T12:10:53;11;11;
44980;PMS5003;67464;52.438;-1.904;2023-04-02T12:13:17;11;10;
44980;PMS5003;67464;52.438;-1.904;2023-04-02T12:15:43;11;11;
44980;PMS5003;67464;52.438;-1.904;2023-04-02T12:18:11;13;12;
44980;PMS5003;67464;52.438;-1.904;2023-04-02T12:20:32;15;12;
44980;PMS5003;67464;52.438;-1.904;2023-04-02T12:22:58;11;11;
44980;PMS5003;67464;52.438;-1.904;2023-04-02T12:25:25;12;10;
44980;PMS5003;67464;52.438;-1.904;2023-04-02T12:30:15;12;11;
44980;PMS5003;67464;52.438;-1.904;2023-04-02T12:32:40;13;12;
44980;PMS5003;67464;52.438;-1.904;2023-04-02T12:37:31;11;11;
44980;PMS5003;67464;52.438;-1.904;2023-04-02T12:39:57;10;10;
44980;PMS5003;67464;52.438;-1.904;2023-04-02T12:42:25;6;6;
44980;PMS5003;67464;52.438;-1.904;2023-04-02T12:44:48;10;9;
44980;PMS5003;67464;52.438;-1.904;2023-04-02T12:47:13;8;7;
44980;PMS5003;67464;52.438;-1.904;2023-04-02T12:49:39;8;7;
44980;PMS5003;67464;52.438;-1.904;2023-04-02T12:52:05;9;8;
44980;PMS5003;67464;52.438;-1.904;2023-04-02T12:54:29;13;9;
44980;PMS5003;67464;52.438;-1.904;2023-04-02T12:57:18;9;9;
44980;PMS5003;67464;52.438;-1.904;2023-04-02T12:59:25;8;8;
44980;PMS5003;67464;52.438;-1.904;2023-04-02T13:04:11;8;7;
44980;PMS5003;67464;52.438;-1.904;2023-04-02T13:06:36;6;6;
44980;PMS5003;67464;52.438;-1.904;2023-04-02T13:09:03;13;13;
44980;PMS5003;67464;52.438;-1.904;2023-04-02T13:11:33;7;7;
44980;PMS5003;67464;52.438;-1.904;2023-04-02T13:13:52;13;9;
44980;PMS5003;67464;52.438;-1.904;2023-04-02T13:16:24;9;8;
44980;PMS5003;67464;52.438;-1.904;2023-04-02T13:18:43;9;9;
44980;PMS5003;67464;52.438;-1.904;2023-04-02T13:23:34;9;9;
44980;PMS5003;67464;52.438;-1.904;2023-04-02T13:25:59;12;10;
44980;PMS5003;67464;52.438;-1.904;2023-04-02T13:28:24;9;9;
44980;PMS5003;67464;52.438;-1.904;2023-04-02T13:30:50;10;10;
44980;PMS5003;67464;52.438;-1.904;2023-04-02T13:33:15;13;13;
44980;PMS5003;67464;52.438;-1.904;2023-04-02T13:35:42;9;8;
44980;PMS5003;67464;52.438;-1.904;2023-04-02T13:38:07;10;10;
44980;PMS5003;67464;52.438;-1.904;2023-04-02T13:40:32;8;8;
44980;PMS5003;67464;52.438;-1.904;2023-04-02T13:42:57;8;8;
44980;PMS5003;67464;52.438;-1.904;2023-04-02T13:45:23;11;9;
44980;PMS5003;67464;52.438;-1.904;2023-04-02T13:47:48;7;7;
44980;PMS5003;67464;52.438;-1.904;2023-04-02T13:50:14;9;9;
44980;PMS5003;67464;52.438;-1.904;2023-04-02T13:52:39;8;8;
44980;PMS5003;67464;52.438;-1.904;2023-04-02T13:55:05;7;6;
44980;PMS5003;67464;52.438;-1.904;2023-04-02T13:57:29;12;7;
44980;PMS5003;67464;52.438;-1.904;2023-04-02T13:59:55;9;9;
44980;PMS5003;67464;52.438;-1.904;2023-04-02T14:02:21;7;7;
44980;PMS5003;67464;52.438;-1.904;2023-04-02T14:04:46;11;10;
44980;PMS5003;67464;52.438;-1.904;2023-04-02T14:09:39;10;9;
44980;PMS5003;67464;52.438;-1.904;2023-04-02T14:12:03;10;10;
44980;PMS5003;67464;52.438;-1.904;2023-04-02T14:14:31;11;10;
44980;PMS5003;67464;52.438;-1.904;2023-04-02T14:16:57;9;7;
44980;PMS5003;67464;52.438;-1.904;2023-04-02T14:19:23;13;10;
44980;PMS5003;67464;52.438;-1.904;2023-04-02T14:21:48;10;9;
44980;PMS5003;67464;52.438;-1.904;2023-04-02T14:24:14;9;7;
44980;PMS5003;67464;52.438;-1.904;2023-04-02T14:26:36;10;10;
44980;PMS5003;67464;52.438;-1.904;2023-04-02T14:29:01;6;6;
44980;PMS5003;67464;52.438;-1.904;2023-04-02T14:31:27;8;8;
44980;PMS5003;67464;52.438;-1.904;2023-04-02T14:33:53;8;6;
44980;PMS5003;67464;52.438;-1.904;2023-04-02T14:36:18;14;10;
44980;PMS5003;67464;52.438;-1.904;2023-04-02T14:38:43;8;8;
44980;PMS5003;67464;52.438;-1.904;2023-04-02T14:41:08;11;11;
44980;PMS5003;67464;52.438;-1.904;2023-04-02T14:43:34;11;10;
44980;PMS5003;67464;52.438;-1.904;2023-04-02T14:45:58;10;9;
44980;PMS5003;67464;52.438;-1.904;2023-04-02T14:48:27;10;10;
44980;PMS5003;67464;52.438;-1.904;2023-04-02T14:50:48;9;7;
44980;PMS5003;67464;52.438;-1.904;2023-04-02T14:53:16;11;11;
44980;PMS5003;67464;52.438;-1.904;2023-04-02T14:55:40;10;9;
44980;PMS5003;67464;52.438;-1.904;2023-04-02T14:58:08;6;6;
44980;PMS5003;67464;52.438;-1.904;2023-04-02T15:00:31;9;9;
44980;PMS5003;67464;52.438;-1.904;2023-04-02T15:02:56;12;9;
44980;PMS5003;67464;52.438;-1.904;2023-04-02T15:05:32;8;8;
44980;PMS5003;67464;52.438;-1.904;2023-04-02T15:07:48;10;10;
44980;PMS5003;67464;52.438;-1.904;2023-04-02T15:10:14;8;7;
44980;PMS5003;67464;52.438;-1.904;2023-04-02T15:12:37;5;5;
44980;PMS5003;67464;52.438;-1.904;2023-04-02T15:15:03;6;6;
44980;PMS5003;67464;52.438;-1.904;2023-04-02T15:17:28;6;6;
44980;PMS5003;67464;52.438;-1.904;2023-04-02T15:19:55;6;6;
44980;PMS5003;67464;52.438;-1.904;2023-04-02T15:22:23;7;7;
44980;PMS5003;67464;52.438;-1.904;2023-04-02T15:24:46;5;5;
44980;PMS5003;67464;52.438;-1.904;2023-04-02T15:27:14;8;6;
44980;PMS5003;67464;52.438;-1.904;2023-04-02T15:29:39;6;6;
44980;PMS5003;67464;52.438;-1.904;2023-04-02T15:32:03;5;5;
44980;PMS5003;67464;52.438;-1.904;2023-04-02T15:34:38;9;9;
44980;PMS5003;67464;52.438;-1.904;2023-04-02T15:36:55;7;6;
44980;PMS5003;67464;52.438;-1.904;2023-04-02T15:39:24;8;8;
44980;PMS5003;67464;52.438;-1.904;2023-04-02T15:41:45;9;6;
44980;PMS5003;67464;52.438;-1.904;2023-04-02T15:44:08;7;7;
44980;PMS5003;67464;52.438;-1.904;2023-04-02T15:46:35;8;5;
44980;PMS5003;67464;52.438;-1.904;2023-04-02T15:49:02;6;6;
44980;PMS5003;67464;52.438;-1.904;2023-04-02T15:51:30;11;7;
44980;PMS5003;67464;52.438;-1.904;2023-04-02T15:53:52;7;7;
44980;PMS5003;67464;52.438;-1.904;2023-04-02T15:56:17;6;6;
44980;PMS5003;67464;52.438;-1.904;2023-04-02T15:58:46;7;7;
44980;PMS5003;67464;52.438;-1.904;2023-04-02T16:01:07;8;8;
44980;PMS5003;67464;52.438;-1.904;2023-04-02T16:03:37;7;7;
44980;PMS5003;67464;52.438;-1.904;2023-04-02T16:06:04;8;8;
44980;PMS5003;67464;52.438;-1.904;2023-04-02T16:08:29;6;6;
44980;PMS5003;67464;52.438;-1.904;2023-04-02T16:10:48;5;5;
44980;PMS5003;67464;52.438;-1.904;2023-04-02T16:13:15;6;5;
44980;PMS5003;67464;52.438;-1.904;2023-04-02T16:15:40;6;6;
44980;PMS5003;67464;52.438;-1.904;2023-04-02T16:18:06;6;6;
44980;PMS5003;67464;52.438;-1.904;2023-04-02T16:20:31;6;5;
44980;PMS5003;67464;52.438;-1.904;2023-04-02T16:22:58;6;6;
44980;PMS5003;67464;52.438;-1.904;2023-04-02T16:25:23;5;5;
44980;PMS5003;67464;52.438;-1.904;2023-04-02T16:27:48;4;4;
44980;PMS5003;67464;52.438;-1.904;2023-04-02T16:30:22;7;7;
44980;PMS5003;67464;52.438;-1.904;2023-04-02T16:32:42;5;5;
44980;PMS5003;67464;52.438;-1.904;2023-04-02T16:35:05;7;4;
44980;PMS5003;67464;52.438;-1.904;2023-04-02T16:37:29;7;7;
44980;PMS5003;67464;52.438;-1.904;2023-04-02T16:39:54;8;8;
44980;PMS5003;67464;52.438;-1.904;2023-04-02T16:42:22;6;6;
44980;PMS5003;67464;52.438;-1.904;2023-04-02T16:44:48;8;8;
44980;PMS5003;67464;52.438;-1.904;2023-04-02T16:47:15;7;6;
44980;PMS5003;67464;52.438;-1.904;2023-04-02T16:49:36;10;10;
44980;PMS5003;67464;52.438;-1.904;2023-04-02T16:52:03;7;5;
44980;PMS5003;67464;52.438;-1.904;2023-04-02T16:54:27;2;2;
44980;PMS5003;67464;52.438;-1.904;2023-04-02T16:56:54;5;5;
44980;PMS5003;67464;52.438;-1.904;2023-04-02T16:59:19;6;6;